Time;durP1;ratioP1;P1;durP2;ratioP2;P2;SDS_P1;SDS_P2;PMS_P1;PMS_P2;Temp;Humidity;BMP_temperature;BMP_pressure;BME280_temperature;BME280_humidity;BME280_pressure;Samples;Min_cycle;Max_cycle;Signal;HPM_P1;HPM_P2
2023/09/24 00:02:45;;;;;;;15.60;7.20;;;;;;;16.17;75.55;99413.08;107122;1267;93313;-90
2023/09/24 00:06:12;;;;;;;12.80;6.40;;;;;;;16.19;75.50;99413.20;107105;1267;93841;-92
2023/09/24 00:09:30;;;;;;;16.00;7.00;;;;;;;16.20;75.63;99410.63;107141;1267;107215;-92
2023/09/24 00:12:44;;;;;;;15.70;7.20;;;;;;;16.25;75.45;99405.02;106930;1276;95988;-91
2023/09/24 00:16:25;;;;;;;14.80;7.30;;;;;;;16.24;75.57;99401.01;107188;1272;107733;-91
2023/09/24 00:19:45;;;;;;;14.90;7.40;;;;;;;16.20;75.59;99394.50;107040;1270;93953;-92
2023/09/24 00:26:33;;;;;;;16.40;7.80;;;;;;;16.18;75.72;99377.55;107695;1268;108199;-92
2023/09/24 00:29:58;;;;;;;;;;;;;;;;;;;;;
2023/09/24 00:33:21;;;;;;;;;;;;;;;;;;;;;
2023/09/24 00:42:53;;;;;;;15.40;7.50;;;;;;;15.96;75.60;99345.33;107547;1263;108839;-92
2023/09/24 00:46:46;;;;;;;14.00;6.80;;;;;;;15.91;75.74;99335.23;107079;1267;95515;-93
2023/09/24 00:53:37;;;;;;;19.00;7.50;;;;;;;15.85;75.73;99340.09;107098;1266;95252;-92
2023/09/24 01:00:28;;;;;;;;;;;;;;;;;;;;;
2023/09/24 01:03:14;;;;;;;17.20;8.00;;;;;;;15.79;75.90;99363.83;107071;1267;96616;-92
2023/09/24 01:06:32;;;;;;;15.90;7.50;;;;;;;15.75;75.86;99365.73;106952;1270;106897;-94
2023/09/24 01:09:49;;;;;;;17.10;7.60;;;;;;;15.75;76.05;99372.77;107011;1268;93874;-93
2023/09/24 01:15:59;;;;;;;;;;;;;;;;;;;;;
2023/09/24 01:22:02;;;;;;;13.00;7.00;;;;;;;15.69;76.04;99398.85;106950;1272;106389;-92
2023/09/24 01:25:00;;;;;;;14.30;7.60;;;;;;;15.67;76.16;99408.17;107011;1267;95249;-94
2023/09/24 01:28:34;;;;;;;;;;;;;;;;;;;;;
2023/09/24 01:31:53;;;;;;;;;;;;;;;;;;;;;
2023/09/24 01:35:03;;;;;;;13.40;6.60;;;;;;;15.64;76.08;99397.15;107011;1267;95529;-90
2023/09/24 01:38:51;;;;;;;;;;;;;;;;;;;;;
2023/09/24 01:42:05;;;;;;;14.10;7.00;;;;;;;15.58;76.01;99389.05;107354;1267;94255;-92
2023/09/24 01:45:04;;;;;;;14.70;7.30;;;;;;;15.62;76.19;99394.49;106900;1268;95202;-92
2023/09/24 04:50:01;;;;;;;;;;;;;;;;;;;;;
2023/09/24 04:53:01;;;;;;;;;;;;;;;;;;;;;
2023/09/24 04:59:35;;;;;;;;;;;;;;;;;;;;;
2023/09/24 05:02:47;;;;;;;9.00;5.00;;;;;;;14.68;76.56;99593.50;103054;1273;5069344;-91
2023/09/24 05:06:07;;;;;;;;;;;;;;;;;;;;;
2023/09/24 05:09:23;;;;;;;;;;;;;;;;;;;;;
2023/09/24 05:12:42;;;;;;;;;;;;;;;;;;;;;
2023/09/24 05:15:53;;;;;;;9.60;4.60;;;;;;;14.53;76.64;99573.10;107133;1272;93629;-92
2023/09/24 05:18:52;;;;;;;9.60;4.60;;;;;;;14.50;76.59;99581.40;107803;1264;108237;-91
2023/09/24 05:22:21;;;;;;;10.30;4.50;;;;;;;14.49;76.62;99600.34;107168;1268;95345;-91
2023/09/24 05:28:25;;;;;;;8.20;4.10;;;;;;;14.44;76.65;99612.03;107221;1267;108732;-91
2023/09/24 05:32:08;;;;;;;;;;;;;;;;;;;;;
2023/09/24 05:35:24;;;;;;;8.70;4.60;;;;;;;14.42;76.64;99635.19;107496;1264;108290;-91
2023/09/24 05:38:33;;;;;;;;;;;;;;;;;;;;;
2023/09/24 05:41:38;;;;;;;10.80;4.20;;;;;;;14.38;76.65;99629.26;107788;1263;93829;-92
2023/09/24 05:44:58;;;;;;;12.50;4.60;;;;;;;14.38;76.66;99627.60;107393;1264;108647;-92
2023/09/24 05:48:00;;;;;;;12.50;4.70;;;;;;;14.37;76.63;99637.70;105540;1263;94359;-91
2023/09/24 05:51:15;;;;;;;9.60;4.50;;;;;;;14.35;76.61;99650.55;107433;1262;107636;-92
2023/09/24 05:57:31;;;;;;;;;;;;;;;;;;;;;
2023/09/24 06:00:57;;;;;;;10.00;4.10;;;;;;;14.34;76.67;99664.38;107403;1262;109837;-92
2023/09/24 06:03:30;;;;;;;10.60;4.20;;;;;;;14.32;76.73;99672.75;105285;1262;95304;-90
2023/09/24 06:05:59;;;;;;;;;;;;;;;14.32;76.70;99683.07;105237;1265;107402;-90
2023/09/24 06:08:30;;;;;;;9.10;4.50;;;;;;;14.33;76.83;99674.06;105276;1265;95440;-90
2023/09/24 06:10:59;;;;;;;7.80;3.80;;;;;;;14.35;76.76;99668.20;105132;1262;95263;-90
2023/09/24 06:13:27;;;;;;;10.80;4.00;;;;;;;14.38;76.79;99672.23;105193;1262;108701;-89
2023/09/24 06:16:05;;;;;;;10.60;4.30;;;;;;;14.41;76.83;99674.01;105234;1262;95975;-90
2023/09/24 06:19:20;;;;;;;11.40;4.50;;;;;;;14.38;76.74;99694.95;105272;1264;108280;-91
2023/09/24 06:21:56;;;;;;;8.90;4.40;;;;;;;14.38;76.78;99696.38;105253;1267;95365;-90
2023/09/24 06:24:29;;;;;;;9.30;4.40;;;;;;;14.39;76.77;99698.40;105276;1264;95390;-89
2023/09/24 06:26:57;;;;;;;8.30;4.10;;;;;;;14.38;76.75;99704.34;105606;1264;106831;-90
2023/09/24 06:29:51;;;;;;;10.30;4.40;;;;;;;14.38;76.87;99709.73;105994;1262;95561;-88
2023/09/24 06:32:22;;;;;;;10.60;4.80;;;;;;;14.36;76.76;99710.19;105612;1267;107447;-91
2023/09/24 06:35:08;;;;;;;;;;;;;;;;;;;;;
2023/09/24 06:38:37;;;;;;;8.30;3.90;;;;;;;14.37;76.84;99706.38;105297;1263;95185;-90
2023/09/24 06:41:30;;;;;;;7.40;3.90;;;;;;;14.41;76.78;99708.56;105326;1262;106686;-90
2023/09/24 06:43:58;;;;;;;6.40;3.70;;;;;;;14.42;76.77;99708.47;105158;1270;95597;-90
2023/09/24 06:46:26;;;;;;;8.50;4.00;;;;;;;14.45;76.70;99693.69;105403;1262;107646;-91
2023/09/24 06:48:55;;;;;;;9.40;3.90;;;;;;;14.47;76.80;99691.00;105296;1261;95344;-90
2023/09/24 06:51:30;;;;;;;6.80;4.00;;;;;;;14.51;76.76;99687.14;105402;1262;95385;-91
2023/09/24 06:54:31;;;;;;;;;;;;;;;;;;;;;
2023/09/24 06:57:17;;;;;;;6.70;3.70;;;;;;;14.55;76.80;99670.88;105589;1267;95516;-91
2023/09/24 06:59:46;;;;;;;6.10;3.50;;;;;;;14.56;76.76;99674.92;105694;1267;107623;-91
2023/09/24 07:02:15;;;;;;;9.10;4.40;;;;;;;14.57;76.66;99684.67;105814;1267;95309;-89
2023/09/24 07:05:57;;;;;;;7.70;4.00;;;;;;;14.57;76.69;99689.47;105748;1262;95276;-92
2023/09/24 07:12:40;;;;;;;7.00;3.60;;;;;;;14.60;76.77;99688.56;106219;1262;96947;-92
2023/09/24 07:15:09;;;;;;;11.80;4.10;;;;;;;14.63;76.77;99687.63;104847;1260;106841;-76
2023/09/24 07:17:37;;;;;;;6.50;3.50;;;;;;;14.65;76.82;99694.25;104711;1265;95219;-77
2023/09/24 07:20:07;;;;;;;10.30;4.00;;;;;;;14.67;76.64;99696.40;104821;1265;95843;-76
2023/09/24 07:22:35;;;;;;;10.10;4.00;;;;;;;14.68;76.73;99704.15;104881;1261;108590;-77
2023/09/24 07:25:04;;;;;;;6.00;3.60;;;;;;;14.68;76.72;99704.17;104732;1263;96164;-77
2023/09/24 07:27:32;;;;;;;7.90;4.00;;;;;;;14.66;76.71;99710.58;104875;1262;107633;-79
2023/09/24 07:30:00;;;;;;;8.30;4.20;;;;;;;14.66;76.67;99717.91;104811;1261;95274;-78
2023/09/24 07:32:29;;;;;;;8.40;4.70;;;;;;;14.64;76.67;99725.02;104593;1265;95264;-78
2023/09/24 07:34:57;;;;;;;7.80;3.80;;;;;;;14.63;76.68;99740.29;104846;1265;107883;-78
2023/09/24 07:37:24;;;;;;;7.60;4.00;;;;;;;14.63;76.81;99752.73;104586;1268;96197;-78
2023/09/24 07:39:53;;;;;;;10.40;4.40;;;;;;;14.65;76.76;99760.09;104640;1262;107708;-78
2023/09/24 07:42:21;;;;;;;8.70;4.10;;;;;;;14.65;76.74;99767.56;104842;1265;96179;-78
2023/09/24 07:44:49;;;;;;;7.50;3.90;;;;;;;14.64;76.71;99780.50;104612;1262;96207;-78
2023/09/24 07:47:17;;;;;;;10.10;4.50;;;;;;;14.64;76.86;99795.35;104636;1265;108141;-78
2023/09/24 07:49:44;;;;;;;11.00;4.50;;;;;;;14.65;76.85;99803.66;104830;1265;96156;-78
2023/09/24 07:52:12;;;;;;;11.70;4.20;;;;;;;14.66;76.90;99811.98;104556;1265;107133;-77
2023/09/24 07:54:40;;;;;;;11.40;4.60;;;;;;;14.67;76.87;99811.64;104635;1262;95273;-77
2023/09/24 07:57:08;;;;;;;9.70;4.60;;;;;;;14.69;76.84;99802.12;104968;1259;95261;-78
2023/09/24 07:59:36;;;;;;;12.70;4.90;;;;;;;14.70;76.76;99784.55;104773;1262;107106;-76
2023/09/24 08:02:03;;;;;;;9.70;4.40;;;;;;;14.70;76.78;99773.63;104661;1261;96099;-77
2023/09/24 08:04:31;;;;;;;8.20;3.90;;;;;;;14.69;76.84;99776.03;104536;1265;107612;-77
2023/09/24 08:06:59;;;;;;;8.10;4.00;;;;;;;14.70;76.91;99780.96;104807;1265;95286;-76
2023/09/24 08:09:28;;;;;;;11.90;4.60;;;;;;;14.70;76.80;99776.48;104661;1275;95220;-76
2023/09/24 08:11:56;;;;;;;10.00;4.70;;;;;;;14.67;76.76;99759.17;104848;1262;108558;-76
2023/09/24 08:14:24;;;;;;;9.10;4.70;;;;;;;14.65;76.78;99732.58;105122;1263;95388;-77
2023/09/24 08:16:53;;;;;;;8.80;4.60;;;;;;;14.63;76.84;99725.08;104934;1265;107775;-77
2023/09/24 08:19:21;;;;;;;10.70;4.80;;;;;;;14.59;76.85;99738.77;104725;1261;95302;-77
2023/09/24 08:21:49;;;;;;;7.80;4.30;;;;;;;14.56;76.76;99762.58;104963;1264;96654;-77
2023/09/24 08:24:17;;;;;;;7.80;4.40;;;;;;;14.52;76.79;99769.99;104746;1262;108151;-76
2023/09/24 08:26:45;;;;;;;12.50;4.80;;;;;;;14.51;76.89;99778.12;105005;1261;95577;-77
2023/09/24 08:29:13;;;;;;;13.00;5.80;;;;;;;14.48;76.92;99789.28;104635;1265;108096;-75
2023/09/24 08:31:40;;;;;;;10.20;4.50;;;;;;;14.44;76.86;99785.79;104619;1263;95375;-76
2023/09/24 08:34:09;;;;;;;8.10;4.70;;;;;;;14.43;76.91;99767.68;104784;1262;95270;-76
2023/09/24 08:36:37;;;;;;;9.70;4.60;;;;;;;14.42;76.95;99754.14;104858;1265;108599;-76
2023/09/24 08:39:04;;;;;;;12.50;5.40;;;;;;;14.43;76.98;99760.20;104757;1265;96116;-76
2023/09/24 08:41:41;;;;;;;12.90;5.60;;;;;;;14.36;76.93;99762.31;104783;1265;105751;-76
2023/09/24 08:44:14;;;;;;;11.70;5.70;;;;;;;14.33;77.17;99762.72;104759;1261;95368;-76
2023/09/24 08:46:43;;;;;;;11.20;5.20;;;;;;;14.32;76.99;99761.17;104882;1259;95283;-76
2023/09/24 08:49:13;;;;;;;8.80;4.60;;;;;;;14.34;77.05;99761.73;104574;1265;108599;-77
2023/09/24 08:51:44;;;;;;;10.00;4.70;;;;;;;14.36;77.15;99771.63;104830;1261;96093;-76
2023/09/24 08:54:13;;;;;;;14.10;5.70;;;;;;;14.35;77.11;99791.65;104599;1269;107001;-77
2023/09/24 08:56:41;;;;;;;12.90;5.20;;;;;;;14.35;77.20;99808.65;104825;1265;95315;-76
2023/09/24 08:59:10;;;;;;;10.30;4.90;;;;;;;14.33;77.15;99821.95;104595;1261;95211;-76
2023/09/24 09:01:38;;;;;;;10.70;5.30;;;;;;;14.34;77.12;99827.80;104654;1264;108662;-76
2023/09/24 09:04:05;;;;;;;12.70;5.40;;;;;;;14.34;77.12;99821.32;104538;1262;95487;-76
2023/09/24 09:06:35;;;;;;;10.90;5.20;;;;;;;14.33;77.12;99812.48;104836;1261;107658;-76
2023/09/24 09:09:03;;;;;;;12.10;5.90;;;;;;;14.34;77.16;99809.55;104764;1265;95281;-76
2023/09/24 09:11:43;;;;;;;14.00;6.60;;;;;;;14.34;77.12;99805.65;104917;1262;95283;-76
2023/09/24 09:14:12;;;;;;;13.30;6.60;;;;;;;14.33;77.17;99795.20;104948;1261;108395;-77
2023/09/24 09:16:57;;;;;;;10.30;5.30;;;;;;;14.32;77.27;99790.33;104822;1264;96108;-77
2023/09/24 09:19:28;;;;;;;13.00;5.50;;;;;;;14.29;77.32;99794.04;104878;1266;106271;-78
2023/09/24 09:21:56;;;;;;;12.00;5.00;;;;;;;14.25;77.23;99799.90;104621;1267;96729;-77
2023/09/24 09:24:25;;;;;;;13.70;5.70;;;;;;;14.21;77.21;99801.30;104956;1262;96733;-77
2023/09/24 09:26:55;;;;;;;11.20;5.20;;;;;;;14.21;77.56;99799.91;104688;1265;109693;-77
2023/09/24 09:29:28;;;;;;;10.60;5.10;;;;;;;14.20;77.39;99786.80;104545;1267;96765;-77
2023/09/24 09:31:56;;;;;;;9.60;4.80;;;;;;;14.20;77.39;99777.06;104873;1265;107742;-76
2023/09/24 09:34:28;;;;;;;10.10;5.10;;;;;;;14.23;77.60;99792.55;104947;1265;96901;-76
2023/09/24 09:37:16;;;;;;;9.30;5.00;;;;;;;14.29;77.58;99803.16;104898;1262;96611;-77
2023/09/24 09:39:45;;;;;;;11.10;5.10;;;;;;;14.37;77.47;99801.85;104674;1265;110361;-77
2023/09/24 09:42:20;;;;;;;11.10;5.00;;;;;;;14.44;77.60;99808.52;104856;1278;96527;-76
2023/09/24 09:44:54;;;;;;;8.50;4.80;;;;;;;14.50;77.79;99813.88;104857;1265;107215;-77
2023/09/24 09:47:27;;;;;;;11.10;5.30;;;;;;;14.51;77.64;99827.35;104833;1267;96569;-76
2023/09/24 09:49:59;;;;;;;8.70;5.10;;;;;;;14.48;77.51;99833.67;104690;1261;96578;-77
2023/09/24 09:52:40;;;;;;;10.80;5.50;;;;;;;14.46;77.45;99844.58;104727;1267;109975;-76
2023/09/24 09:55:08;;;;;;;10.20;4.50;;;;;;;14.47;77.59;99859.47;104742;1262;97367;-75
2023/09/24 09:57:37;;;;;;;11.40;5.50;;;;;;;14.45;77.51;99876.17;104743;1265;109328;-82
2023/09/24 10:00:07;;;;;;;13.90;6.00;;;;;;;14.45;77.64;99886.52;104723;1265;96804;-78
2023/09/24 10:02:36;;;;;;;10.30;5.30;;;;;;;14.46;77.56;99892.71;105209;1264;97945;-76
2023/09/24 10:05:06;;;;;;;12.40;5.10;;;;;;;14.47;77.50;99864.83;104824;1265;110160;-77
2023/09/24 10:07:38;;;;;;;9.80;5.10;;;;;;;14.43;77.52;99812.79;104768;1265;96595;-77
2023/09/24 10:10:31;;;;;;;11.90;5.20;;;;;;;14.40;77.62;99793.96;104572;1262;107687;-76
2023/09/24 10:12:59;;;;;;;13.60;5.10;;;;;;;14.37;77.57;99838.63;104729;1262;96689;-76
2023/09/24 10:15:30;;;;;;;9.00;4.90;;;;;;;14.35;77.74;99852.15;104650;1265;96659;-76
2023/09/24 10:18:08;;;;;;;8.60;4.40;;;;;;;14.33;77.74;99828.77;104691;1262;109889;-76
2023/09/24 10:20:48;;;;;;;10.70;5.00;;;;;;;14.32;77.62;99799.91;104880;1264;96667;-76
2023/09/24 10:23:29;;;;;;;11.80;4.50;;;;;;;14.35;77.63;99792.96;104597;1264;107635;-76
2023/09/24 10:25:59;;;;;;;8.20;4.50;;;;;;;14.37;77.80;99808.80;104518;1263;96634;-76
2023/09/24 10:28:45;;;;;;;8.50;4.50;;;;;;;14.41;77.66;99834.19;104894;1264;96710;-82
2023/09/24 10:31:17;;;;;;;7.10;4.40;;;;;;;14.47;77.80;99851.02;104608;1265;109991;-80
2023/09/24 10:33:57;;;;;;;11.70;4.70;;;;;;;14.55;77.81;99861.16;104728;1265;96616;-77
2023/09/24 10:36:37;;;;;;;6.20;4.00;;;;;;;14.60;77.78;99865.09;104787;1265;107316;-75
2023/09/24 10:39:13;;;;;;;9.20;4.70;;;;;;;14.64;77.80;99871.55;106202;1263;96844;-76
2023/09/24 10:42:09;;;;;;;9.10;4.60;;;;;;;14.70;77.93;99862.14;104783;1265;96704;-75
2023/09/24 10:44:39;;;;;;;10.60;5.20;;;;;;;14.82;77.94;99852.70;108116;1261;109842;-76
2023/09/24 10:47:28;;;;;;;10.00;4.50;;;;;;;14.91;78.02;99850.95;108076;1262;96844;-76
2023/09/24 10:50:04;;;;;;;7.10;4.30;;;;;;;14.98;77.96;99844.83;108021;1261;109023;-76
2023/09/24 10:52:51;;;;;;;10.90;4.60;;;;;;;15.07;77.93;99831.67;108091;1261;94479;-76
2023/09/24 10:55:39;;;;;;;9.40;5.00;;;;;;;15.16;77.87;99833.09;108146;1260;94947;-76
2023/09/24 10:58:15;;;;;;;7.00;4.30;;;;;;;15.17;77.61;99836.54;105733;1262;111335;-75
2023/09/24 11:00:45;;;;;;;8.80;4.50;;;;;;;15.22;77.79;99836.96;104631;1267;97948;-77
2023/09/24 11:03:14;;;;;;;8.50;4.70;;;;;;;15.25;77.79;99839.36;104779;1264;107686;-76
2023/09/24 11:05:45;;;;;;;8.90;4.80;;;;;;;15.25;77.83;99845.22;104774;1264;96645;-77
2023/09/24 11:08:16;;;;;;;8.20;4.20;;;;;;;15.23;77.78;99853.09;104659;1267;97572;-76
2023/09/24 11:10:49;;;;;;;6.10;3.90;;;;;;;15.19;77.77;99855.52;104725;1265;110038;-76
2023/09/24 11:13:17;;;;;;;7.60;4.30;;;;;;;15.19;77.78;99849.98;104511;1267;96599;-76
2023/09/24 11:15:45;;;;;;;7.80;4.60;;;;;;;15.14;77.74;99846.11;104870;1262;107625;-78
2023/09/24 11:18:13;;;;;;;9.10;4.50;;;;;;;15.12;77.73;99845.52;104754;1261;96671;-77
2023/09/24 11:20:52;;;;;;;8.20;4.40;;;;;;;15.07;77.82;99850.39;104768;1262;96736;-78
2023/09/24 11:23:20;;;;;;;8.20;4.30;;;;;;;15.07;77.90;99856.29;104713;1265;109756;-75
2023/09/24 11:25:50;;;;;;;10.30;4.80;;;;;;;15.04;77.79;99858.48;104867;1265;96582;-77
2023/09/24 11:28:27;;;;;;;10.20;4.90;;;;;;;15.03;77.78;99864.65;104806;1265;107548;-76
2023/09/24 11:30:55;;;;;;;8.30;4.50;;;;;;;15.02;77.93;99859.73;104627;1264;96627;-76
2023/09/24 11:33:23;;;;;;;9.00;4.20;;;;;;;15.01;77.79;99854.58;104556;1262;96671;-77
2023/09/24 11:35:54;;;;;;;11.50;5.10;;;;;;;15.02;77.86;99850.76;104693;1265;109477;-77
2023/09/24 11:38:32;;;;;;;10.40;5.10;;;;;;;15.04;77.96;99838.66;104892;1265;96551;-77
2023/09/24 11:41:13;;;;;;;9.40;4.40;;;;;;;15.03;77.88;99838.35;104616;1265;107654;-78
2023/09/24 11:43:42;;;;;;;8.40;4.70;;;;;;;15.04;77.91;99842.07;104636;1268;97919;-77
2023/09/24 11:46:17;;;;;;;8.30;4.70;;;;;;;15.06;77.95;99858.91;104758;1267;96737;-78
2023/09/24 11:48:45;;;;;;;7.30;4.40;;;;;;;15.09;77.93;99868.65;104602;1265;109455;-78
2023/09/24 11:51:14;;;;;;;12.60;5.20;;;;;;;15.09;77.94;99869.33;104755;1263;97964;-78
2023/09/24 11:53:43;;;;;;;10.70;4.90;;;;;;;15.09;78.08;99871.13;104743;1265;105924;-77
2023/09/24 11:56:11;;;;;;;9.50;4.70;;;;;;;15.11;77.93;99872.59;104909;1265;96634;-80
2023/09/24 11:58:39;;;;;;;8.20;4.50;;;;;;;15.10;77.86;99874.80;104724;1260;96859;-79
2023/09/24 12:01:09;;;;;;;9.30;5.00;;;;;;;15.09;77.96;99873.13;104513;1268;109031;-78
2023/09/24 12:03:38;;;;;;;8.90;4.80;;;;;;;15.08;77.88;99865.15;104436;1281;96634;-79
2023/09/24 12:06:07;;;;;;;9.50;4.50;;;;;;;15.08;77.85;99867.11;104773;1278;107704;-78
2023/09/24 12:08:35;;;;;;;8.80;5.00;;;;;;;15.06;77.89;99866.90;104658;1265;97207;-78
2023/09/24 12:11:03;;;;;;;11.60;5.90;;;;;;;15.07;77.98;99866.80;104911;1262;96559;-79
2023/09/24 12:13:31;;;;;;;10.50;4.60;;;;;;;15.10;78.07;99867.16;105033;1265;109917;-77
2023/09/24 12:15:59;;;;;;;12.70;4.80;;;;;;;15.11;77.96;99869.40;104571;1265;96613;-78
2023/09/24 12:18:27;;;;;;;10.40;4.60;;;;;;;15.09;77.89;99874.02;104534;1265;107612;-78
2023/09/24 12:20:57;;;;;;;8.50;4.80;;;;;;;15.08;77.96;99873.04;104658;1267;96541;-77
2023/09/24 12:23:25;;;;;;;7.00;4.20;;;;;;;15.08;77.99;99873.37;104834;1264;96626;-78
2023/09/24 12:25:53;;;;;;;9.10;4.40;;;;;;;15.07;77.95;99868.97;104700;1267;110062;-77
2023/09/24 12:28:21;;;;;;;12.00;5.30;;;;;;;15.06;77.91;99853.50;104776;1265;97956;-77
2023/09/24 12:30:49;;;;;;;11.30;4.50;;;;;;;15.06;77.98;99852.23;104868;1265;107323;-77
2023/09/24 12:33:17;;;;;;;10.40;4.70;;;;;;;15.05;77.90;99862.02;106719;1264;96638;-78
2023/09/24 12:35:45;;;;;;;10.30;4.70;;;;;;;15.07;78.01;99877.71;104811;1265;97438;-80
2023/09/24 12:38:13;;;;;;;7.20;4.50;;;;;;;15.10;78.06;99880.00;104689;1276;110875;-78
2023/09/24 12:40:41;;;;;;;9.70;4.60;;;;;;;15.12;77.89;99877.36;104833;1263;96637;-78
2023/09/24 12:43:09;;;;;;;13.20;5.50;;;;;;;15.13;77.96;99874.92;104961;1265;107638;-77
2023/09/24 12:45:37;;;;;;;8.60;4.80;;;;;;;15.16;77.94;99867.92;104747;1265;96713;-77
2023/09/24 12:48:06;;;;;;;8.40;4.30;;;;;;;15.20;78.01;99860.61;106241;1261;96607;-77
2023/09/24 12:50:34;;;;;;;10.90;5.10;;;;;;;15.26;78.04;99851.40;105026;1265;109522;-79
2023/09/24 12:53:04;;;;;;;10.60;5.20;;;;;;;15.34;78.17;99853.10;104896;1266;96643;-77
2023/09/24 12:55:32;;;;;;;8.80;5.10;;;;;;;15.40;78.15;99842.02;104995;1263;108898;-77
2023/09/24 12:58:00;;;;;;;10.90;5.40;;;;;;;15.50;78.17;99842.75;104798;1268;97819;-79
2023/09/24 13:00:28;;;;;;;9.70;4.70;;;;;;;15.55;78.08;99860.52;105287;1260;96606;-77
2023/09/24 13:02:56;;;;;;;10.20;4.60;;;;;;;15.57;78.10;99865.95;104882;1264;109878;-79
2023/09/24 13:05:24;;;;;;;10.90;4.90;;;;;;;15.61;78.09;99862.04;104938;1265;96638;-77
2023/09/24 13:07:52;;;;;;;10.30;5.20;;;;;;;15.64;78.25;99864.09;104583;1266;107264;-79
2023/09/24 13:10:20;;;;;;;9.10;5.60;;;;;;;15.69;78.22;99868.74;104973;1265;97957;-78
2023/09/24 13:12:47;;;;;;;9.30;5.00;;;;;;;15.70;78.17;99864.69;104687;1263;96542;-79
2023/09/24 13:15:15;;;;;;;9.90;5.40;;;;;;;15.73;78.19;99860.65;104660;1263;109694;-78
2023/09/24 13:17:44;;;;;;;7.20;4.50;;;;;;;15.79;78.20;99858.23;104872;1265;96562;-79
2023/09/24 13:20:13;;;;;;;7.70;4.90;;;;;;;15.82;78.17;99860.91;104986;1265;107126;-78
2023/09/24 13:22:41;;;;;;;8.60;5.20;;;;;;;15.79;78.12;99852.34;104916;1265;97555;-78
2023/09/24 13:25:09;;;;;;;9.80;5.30;;;;;;;15.76;78.11;99851.15;104990;1265;96620;-79
2023/09/24 13:27:41;;;;;;;10.30;4.70;;;;;;;15.72;78.01;99849.84;104855;1265;110546;-77
2023/09/24 13:30:09;;;;;;;8.00;4.40;;;;;;;15.69;78.12;99849.56;104987;1265;97981;-78
2023/09/24 13:32:38;;;;;;;9.00;5.10;;;;;;;15.65;78.08;99848.14;104914;1265;107693;-78
2023/09/24 13:35:07;;;;;;;8.50;5.00;;;;;;;15.66;78.22;99853.77;104818;1265;96716;-77
2023/09/24 13:37:37;;;;;;;8.70;5.00;;;;;;;15.67;78.21;99859.06;104775;1267;97621;-78
2023/09/24 13:40:07;;;;;;;8.70;4.50;;;;;;;15.65;78.07;99860.05;104810;1264;109973;-78
2023/09/24 13:42:50;;;;;;;9.00;5.00;;;;;;;15.63;78.05;99855.06;104913;1266;96610;-77
2023/09/24 13:45:18;;;;;;;8.20;5.10;;;;;;;15.63;78.25;99849.30;104863;1267;107545;-78
2023/09/24 13:47:46;;;;;;;8.30;4.30;;;;;;;15.67;78.28;99844.77;104845;1268;97843;-78
2023/09/24 13:50:14;;;;;;;12.50;5.10;;;;;;;15.67;78.20;99849.38;104874;1265;96618;-78
2023/09/24 13:52:43;;;;;;;7.70;4.70;;;;;;;15.64;78.15;99849.46;105090;1265;109975;-78
2023/09/24 13:55:11;;;;;;;7.00;4.40;;;;;;;15.62;78.29;99854.06;104996;1276;96538;-78
2023/09/24 13:57:40;;;;;;;11.20;5.20;;;;;;;15.63;78.27;99862.35;104862;1265;107199;-78
2023/09/24 14:00:08;;;;;;;10.20;4.80;;;;;;;15.65;78.28;99862.42;105175;1265;96616;-78
2023/09/24 14:02:36;;;;;;;8.60;4.40;;;;;;;15.63;78.23;99856.30;104681;1263;97227;-78
2023/09/24 14:05:04;;;;;;;8.70;4.20;;;;;;;15.62;78.20;99848.36;105023;1265;109938;-78
2023/09/24 14:07:32;;;;;;;10.50;4.50;;;;;;;15.61;78.15;99844.84;104966;1265;96807;-78
2023/09/24 14:12:47;;;;;;;9.70;4.40;;;;;;;15.60;78.14;99845.31;104687;1263;97872;-79
2023/09/24 14:15:15;;;;;;;10.10;4.50;;;;;;;15.58;78.23;99847.27;104876;1265;96604;-79
2023/09/24 14:17:43;;;;;;;9.10;4.60;;;;;;;15.57;78.18;99856.77;104546;1263;109898;-80
2023/09/24 14:20:22;;;;;;;11.00;5.00;;;;;;;15.57;78.24;99857.84;104685;1270;96640;-78
2023/09/24 14:22:50;;;;;;;11.30;5.10;;;;;;;15.57;78.29;99859.17;104570;1265;107682;-79
2023/09/24 14:25:18;;;;;;;10.60;4.90;;;;;;;15.53;78.33;99860.11;104679;1265;97545;-79
2023/09/24 14:27:45;;;;;;;9.20;4.50;;;;;;;15.53;78.29;99865.50;104635;1263;96636;-79
2023/09/24 14:30:13;;;;;;;11.70;5.10;;;;;;;15.53;78.34;99882.72;104777;1265;109994;-78
2023/09/24 14:32:41;;;;;;;11.30;5.20;;;;;;;15.53;78.37;99895.95;104530;1274;97540;-78
2023/09/24 14:35:09;;;;;;;11.60;5.20;;;;;;;15.54;78.28;99919.10;104560;1265;107285;-78
2023/09/24 14:37:37;;;;;;;9.70;4.70;;;;;;;15.54;78.50;99948.60;104908;1265;97941;-78
2023/09/24 14:40:06;;;;;;;8.60;5.10;;;;;;;15.53;78.38;99991.19;104754;1265;97951;-79
2023/09/24 14:42:33;;;;;;;12.80;4.90;;;;;;;15.54;78.49;100035.64;104884;1264;110253;-79
2023/09/24 14:45:01;;;;;;;15.10;6.20;;;;;;;15.54;78.44;100076.23;104736;1267;97442;-78
2023/09/24 14:47:30;;;;;;;13.30;5.60;;;;;;;15.54;78.48;100100.14;104765;1265;106314;-78
2023/09/24 14:49:59;;;;;;;12.90;5.40;;;;;;;15.53;78.49;100096.09;104812;1276;96716;-78
2023/09/24 14:52:27;;;;;;;11.40;5.40;;;;;;;15.52;78.48;100056.33;104750;1265;96650;-78
2023/09/24 14:54:57;;;;;;;14.50;5.80;;;;;;;15.51;78.43;99987.38;104601;1265;109652;-79
2023/09/24 14:57:25;;;;;;;12.70;5.40;;;;;;;15.47;78.28;99918.71;104755;1265;96561;-79
2023/09/24 14:59:53;;;;;;;12.70;5.60;;;;;;;15.40;78.46;99906.92;104814;1276;107144;-79
2023/09/24 15:02:21;;;;;;;9.30;5.10;;;;;;;15.33;78.44;99916.25;104979;1271;96637;-79
2023/09/24 15:04:51;;;;;;;11.60;5.50;;;;;;;15.28;78.58;99899.98;104853;1262;96619;-79
2023/09/24 15:07:19;;;;;;;12.40;5.10;;;;;;;15.25;78.49;99871.83;104662;1277;109903;-78
2023/09/24 15:09:47;;;;;;;10.40;5.60;;;;;;;15.21;78.50;99857.18;104862;1265;96617;-77
2023/09/24 15:12:15;;;;;;;13.20;5.60;;;;;;;15.16;78.49;99861.25;104578;1275;107277;-77
2023/09/24 15:14:43;;;;;;;12.20;6.00;;;;;;;15.13;78.76;99872.06;104696;1274;96676;-79
2023/09/24 15:17:11;;;;;;;13.50;5.70;;;;;;;15.11;78.60;99877.02;104856;1265;97958;-79
2023/09/24 15:19:39;;;;;;;12.90;5.90;;;;;;;15.10;78.80;99882.87;104764;1262;109947;-78
2023/09/24 15:22:07;;;;;;;9.50;5.80;;;;;;;15.08;78.70;99890.86;104743;1274;96610;-79
2023/09/24 15:24:34;;;;;;;11.70;5.80;;;;;;;15.08;78.76;99886.05;104864;1265;107689;-78
2023/09/24 15:27:02;;;;;;;14.90;6.40;;;;;;;15.10;78.73;99898.60;104849;1269;96680;-79
2023/09/24 15:29:31;;;;;;;13.60;6.50;;;;;;;15.10;78.77;99903.79;104763;1265;96613;-78
2023/09/24 15:31:59;;;;;;;14.00;6.80;;;;;;;15.11;78.78;99904.38;104582;1269;109998;-78
2023/09/24 15:34:27;;;;;;;11.60;5.60;;;;;;;15.13;78.91;99903.68;104807;1265;97249;-78
2023/09/24 15:36:55;;;;;;;12.90;6.60;;;;;;;15.15;78.88;99904.21;104736;1265;108321;-79
2023/09/24 15:39:23;;;;;;;11.80;5.90;;;;;;;15.15;78.85;99897.46;104769;1269;96701;-79
2023/09/24 15:41:51;;;;;;;13.10;6.10;;;;;;;15.14;78.85;99900.95;104763;1275;97949;-78
2023/09/24 15:44:19;;;;;;;13.10;6.30;;;;;;;15.15;78.81;99901.59;104802;1265;108517;-79
2023/09/24 15:46:47;;;;;;;10.50;5.60;;;;;;;15.15;78.81;99910.64;104834;1263;96605;-79
2023/09/24 15:49:15;;;;;;;14.10;6.30;;;;;;;15.16;78.94;99908.77;104729;1262;107645;-78
2023/09/24 15:51:42;;;;;;;16.00;7.10;;;;;;;15.17;79.03;99908.87;104646;1266;96698;-78
2023/09/24 15:54:10;;;;;;;14.40;6.50;;;;;;;15.20;78.96;99906.70;104770;1265;96662;-79
2023/09/24 15:56:38;;;;;;;12.60;6.70;;;;;;;15.20;79.01;99901.23;104552;1269;109500;-81
2023/09/24 15:59:06;;;;;;;12.70;6.00;;;;;;;15.20;78.91;99906.34;104969;1267;96936;-78
2023/09/24 16:01:34;;;;;;;11.30;6.10;;;;;;;15.21;78.99;99911.09;104611;1274;107686;-80
2023/09/24 16:04:02;;;;;;;12.10;6.30;;;;;;;15.23;79.06;99912.98;104815;1269;96714;-86
2023/09/24 16:06:30;;;;;;;14.80;6.40;;;;;;;15.23;79.05;99916.51;104980;1267;96813;-80
2023/09/24 16:08:58;;;;;;;13.10;6.10;;;;;;;15.23;79.12;99917.58;105046;1265;109684;-80
2023/09/24 16:11:26;;;;;;;13.10;5.90;;;;;;;15.23;78.96;99916.36;104703;1266;96613;-78
2023/09/24 16:13:54;;;;;;;19.40;6.60;;;;;;;15.21;79.13;99912.33;104886;1270;107402;-78
2023/09/24 16:16:22;;;;;;;12.40;6.00;;;;;;;15.18;79.05;99912.22;104643;1265;97497;-77